NCAR-RAP Real-Time Weather Data

Output produced by METARs form (08 May 2021  17:08 UTC)
found at http://weather.rap.ucar.edu/surface/
 
KMLI 081652Z 10012G20KT 10SM CLR 14/M01 A3008 RMK AO2 SLP187 T01391006
KMLI 081552Z 09011G16KT 10SM CLR 13/M01 A3010 RMK AO2 SLP194 T01281006
KMLI 081452Z VRB05KT 10SM CLR 12/01 A3012 RMK AO2 SLP200 T01170006 58005
KMLI 081352Z 16007KT 10SM CLR 10/01 A3014 RMK AO2 SLP206 T01000011
KMLI 081252Z 11003KT 10SM CLR 07/02 A3014 RMK AO2 SLP209 T00720017
KMLI 081152Z 00000KT 10SM CLR 03/M01 A3013 RMK AO2 SLP207 T00281006 10067 20000 53009
KMLI 081052Z 00000KT 10SM CLR 02/M01 A3012 RMK AO2 SLP203 T00171011
KMLI 080952Z 11005KT 10SM CLR 00/M03 A3011 RMK AO2 SLP198 T00001028
KMLI 080852Z 00000KT 10SM CLR 03/M01 A3011 RMK AO2 SLP197 T00281011 53006
KMLI 080752Z 00000KT 10SM CLR 04/M01 A3010 RMK AO2 SLP194 T00391011
KMLI 080652Z 00000KT 10SM CLR 06/M01 A3010 RMK AO2 SLP192 T00611011
KMLI 080552Z 08007KT 10SM CLR 04/M01 A3009 RMK AO2 SLP190 T00391011 10150 20039 401830039 50008
KMLI 080452Z 10004KT 10SM CLR 07/M01 A3009 RMK AO2 SLP190 T00671006
KMLI 080352Z 09004KT 10SM CLR 07/M01 A3008 RMK AO2 SLP186 T00721011
KMLI 080252Z 06007KT 10SM CLR 11/M02 A3006 RMK AO2 SLP181 T01061017 53018